SKUC/AUC METAR and TAF weather

Enter ICAO airport designator
Station Type Date Time Source
SKUC METAR 2019/10/21 02:00 UTC NOAA

SKUC 210200Z 00000KT 9999 BKN020 25/25 A2990


Station Type Date Time Source
SKUC Decoded METAR 2019/10/21 02:00 UTC NOAA

Arauca / Santiago Perez, Colombia (SKUC) 07-04N 070-44W 128M
Oct 20, 2019 - 10:00 PM EDT / 2019.10.21 0200 UTC
Wind: Calm:0
Visibility: greater than 7 mile(s):0
Sky conditions: mostly cloudy
Temperature: 77 F (25 C)
Dew Point: 77 F (25 C)
Relative Humidity: 100%
Pressure (altimeter): 29.9 in. Hg (1012 hPa)
ob: SKUC 210200Z 00000KT 9999 BKN020 25/25 A2990
cycle: 2

Station Type Date Time Source
SKUC TAF UTC NOAA

Error!

Example: see airport list